Airfield :
LOGIN :

Register | Disclaimer

   EN    FR    IT 

 










Legend :    VFR   Marginal VFR   IFR   Intensive IFR   Very Intensive IFR
Visi :
Ceiling :
>= 8 km
>= 3000ft
5 to 8 km
1000 to 3000 ft
1500m to 5 km
500 to 1000 ft
800 to 1500m
200 to 500 ft
< 800m
< 200 ft
Symbols :   Thunderstorms  Fog  Heavy snow  Heavy precipitations  Wind > 20 kt
SIGMETs :     Misc.  Thunderstorms  Icing  Turbulence  Mountain Waves  Volcanic Ashes






- Airport Elevation : 821 ft
- IATA code : LYS


LFLL - Lyon St Exupéry / Satolas

CURRENT METAR :
  • 221930Z 31015KT 9999 -RA FEW023 BKN028 BKN035 05/02 Q1001 NOSIG

EXPIRED METARs :
  • 221900Z 31019KT 9999 -RA SCT021 BKN028 04/02 Q0999 NOSIG
  • 221830Z 30020KT 9999 -RA SCT020 OVC028 05/03 Q0998 NOSIG
  • 221800Z 29021KT 9999 -RA SCT016 OVC032 05/03 Q0996 NOSIG
  • 221730Z 29021KT 9999 -RA SCT020 OVC043 06/04 Q0995 NOSIG
  • 221700Z 30016KT 9999 -RA SCT008 SCT020 OVC034 08/06 Q0994 NOSIG

TAF TAF LFLL
Valid from the 22 at 18:00 until the 24 at 00:00 UTC


221700Z 2218/2324 30015KT 9999 OVC020
PROB40
TEMPO 2218/2221 30020G30KT
TEMPO 2218/2220 3000 RA
BECMG 2220/2224 16004KT BKN030
TEMPO 2300/2305 RA
BECMG 2306/2308 CAVOK
BECMG 2309/2312 20015KT
TEMPO 2312/2317 20020G30KT
PROB30
TEMPO 2314/2316 20020G40KT
PROB40
TEMPO 2317/2320 27020G35KT
BECMG 2320/2322 36005KT



MET'MAP, your aeronautical weather chart ! - Copyright ORBIFLY December 2007 - Disclaimer

ORBIFLY MET'MAP TEAM :

Programming & Development : Alexandra Zaïnal
Concept & original design : Baudouin d'Aumeries
Assistance for programming : Marc-Olivier Méhu
Technical & hardware support : Manuel Goepfert

Contact : metmap@orbifly.com




SOURCES & CREDITS :

   NOAA